Time;durP1;ratioP1;P1;durP2;ratioP2;P2;SDS_P1;SDS_P2;PMS_P1;PMS_P2;Temp;Humidity;BMP_temperature;BMP_pressure;BME280_temperature;BME280_humidity;BME280_pressure;Samples;Min_cycle;Max_cycle;Signal;HPM_P1;HPM_P2
2023/03/31 00:01:24;;;;;;;11.1;8;;;;;;;7.51;100;934.3865;;;;
2023/03/31 00:03:49;;;;;;;10.2;8;;;;;;;7.55;99.75977;934.3387;;;;
2023/03/31 00:06:16;;;;;;;10.2;7.7;;;;;;;7.61;100;934.3784;;;;
2023/03/31 00:08:39;;;;;;;11.1;7.5;;;;;;;7.65;100;934.3198;;;;
2023/03/31 00:11:07;;;;;;;12.3;7.8;;;;;;;7.63;100;934.2555;;;;
2023/03/31 00:13:32;;;;;;;10.5;7.6;;;;;;;7.6;100;934.1913;;;;
2023/03/31 00:16:02;;;;;;;8.9;6.4;;;;;;;7.53;100;934.0597;;;;
2023/03/31 00:18:28;;;;;;;8.7;7.2;;;;;;;7.57;100;934.1434;;;;
2023/03/31 00:20:57;;;;;;;10.9;7.7;;;;;;;7.49;100;934.0701;;;;
2023/03/31 00:23:37;;;;;;;12.5;8.5;;;;;;;7.41;100;933.9606;;;;
2023/03/31 00:26:02;;;;;;;12.9;11.6;;;;;;;7.4;100;933.899;;;;
2023/03/31 00:28:27;;;;;;;10.7;8.2;;;;;;;7.36;100;933.7402;;;;
2023/03/31 00:31:42;;;;;;;10.5;7.4;;;;;;;7.43;100;933.8897;;;;
2023/03/31 00:33:51;;;;;;;10.3;7.7;;;;;;;7.51;99.39746;933.7988;;;;
2023/03/31 00:36:19;;;;;;;8.7;7;;;;;;;7.55;99.35156;933.8967;;;;
2023/03/31 00:38:45;;;;;;;9;7;;;;;;;7.56;99.46484;933.8438;;;;
2023/03/31 00:41:07;;;;;;;9.9;7;;;;;;;7.47;99.65039;933.8055;;;;
2023/03/31 00:43:31;;;;;;;9.8;7.3;;;;;;;7.34;100;933.7486;;;;
2023/03/31 00:45:56;;;;;;;10.1;8.1;;;;;;;7.28;100;933.6861;;;;
2023/03/31 00:48:22;;;;;;;10.6;8.1;;;;;;;7.24;100;933.7424;;;;
2023/03/31 00:50:47;;;;;;;11.7;8.2;;;;;;;7.22;100;933.7826;;;;
2023/03/31 00:53:12;;;;;;;11;8.8;;;;;;;7.17;100;933.6533;;;;
2023/03/31 00:55:38;;;;;;;10.9;8.2;;;;;;;7.12;100;933.6169;;;;
2023/03/31 00:58:03;;;;;;;9.9;8.4;;;;;;;7.1;100;933.6696;;;;
2023/03/31 01:00:32;;;;;;;9.6;7.6;;;;;;;7.16;100;933.5867;;;;
2023/03/31 01:02:58;;;;;;;10.7;8.5;;;;;;;7.11;100;933.5106;;;;
2023/03/31 01:05:27;;;;;;;12.6;7.8;;;;;;;7.12;100;933.5117;;;;
2023/03/31 01:07:53;;;;;;;9.9;8.1;;;;;;;7.13;100;933.3787;;;;
2023/03/31 01:10:22;;;;;;;10.4;7;;;;;;;7.07;100;933.3661;;;;
2023/03/31 01:12:47;;;;;;;11.1;7.8;;;;;;;6.97;100;933.3984;;;;
2023/03/31 01:15:12;;;;;;;8.4;7.5;;;;;;;6.98;100;933.3272;;;;
2023/03/31 01:17:43;;;;;;;8.5;7;;;;;;;6.91;100;933.2985;;;;
2023/03/31 01:20:10;;;;;;;11.9;8;;;;;;;6.94;100;933.1549;;;;
2023/03/31 01:22:36;;;;;;;10;8.2;;;;;;;6.9;100;933.1273;;;;
2023/03/31 01:25:00;;;;;;;11.9;7.4;;;;;;;6.85;100;933.1189;;;;
2023/03/31 01:27:30;;;;;;;9.7;7.3;;;;;;;6.78;100;933.1918;;;;
2023/03/31 01:29:56;;;;;;;8.7;6.9;;;;;;;6.69;100;933.211;;;;
2023/03/31 01:32:26;;;;;;;9.1;7.3;;;;;;;6.63;100;933.1135;;;;
2023/03/31 01:34:52;;;;;;;7.9;7;;;;;;;6.73;100;933.0898;;;;
2023/03/31 01:37:17;;;;;;;9.4;6.9;;;;;;;6.79;100;933.0717;;;;
2023/03/31 01:39:42;;;;;;;8.5;6.4;;;;;;;6.93;100;933.0424;;;;
2023/03/31 01:42:07;;;;;;;7.9;6.5;;;;;;;7.04;100;932.9771;;;;
2023/03/31 01:45:23;;;;;;;8.4;6.3;;;;;;;7.16;100;932.9382;;;;
2023/03/31 01:47:39;;;;;;;8.9;6.8;;;;;;;7.31;99.30664;932.9017;;;;
2023/03/31 01:49:58;;;;;;;8.4;6.2;;;;;;;7.34;99.00684;932.868;;;;
2023/03/31 01:52:23;;;;;;;8.7;6.8;;;;;;;7.26;98.43457;932.8195;;;;
2023/03/31 01:54:51;;;;;;;8.8;6.1;;;;;;;7.13;99.08301;932.8127;;;;
2023/03/31 01:57:15;;;;;;;11.1;6.9;;;;;;;6.96;100;932.8601;;;;
2023/03/31 01:59:40;;;;;;;8.2;6.2;;;;;;;6.84;100;932.7997;;;;
2023/03/31 02:02:07;;;;;;;9.1;7.6;;;;;;;6.87;100;932.8239;;;;
2023/03/31 02:04:35;;;;;;;9.7;7.5;;;;;;;6.83;100;932.798;;;;
2023/03/31 02:07:00;;;;;;;10.1;7.8;;;;;;;6.76;100;932.7358;;;;
2023/03/31 02:09:25;;;;;;;11.5;8.2;;;;;;;6.76;100;932.6591;;;;
2023/03/31 02:11:50;;;;;;;9.6;7.8;;;;;;;6.75;100;932.6445;;;;
2023/03/31 02:14:17;;;;;;;9.4;8;;;;;;;6.73;100;932.6523;;;;
2023/03/31 02:16:46;;;;;;;10;6.6;;;;;;;6.76;100;932.5806;;;;
2023/03/31 02:19:17;;;;;;;9.8;7.3;;;;;;;6.92;100;932.5698;;;;
2023/03/31 02:21:39;;;;;;;9.5;7.3;;;;;;;6.95;100;932.4816;;;;
2023/03/31 02:24:06;;;;;;;8.3;7.1;;;;;;;6.86;100;932.5089;;;;
2023/03/31 02:26:31;;;;;;;7.9;6.7;;;;;;;6.78;100;932.4647;;;;
2023/03/31 02:28:56;;;;;;;8.2;6.4;;;;;;;6.8;100;932.3969;;;;
2023/03/31 02:31:23;;;;;;;7;6.3;;;;;;;6.83;100;932.4033;;;;
2023/03/31 02:33:48;;;;;;;8.3;6.5;;;;;;;6.78;100;932.3547;;;;
2023/03/31 02:36:13;;;;;;;8.2;6.5;;;;;;;6.84;100;932.3511;;;;
2023/03/31 02:38:40;;;;;;;7.3;5.8;;;;;;;6.88;100;932.4394;;;;
2023/03/31 02:41:05;;;;;;;10.2;7;;;;;;;6.81;100;932.3808;;;;
2023/03/31 02:43:31;;;;;;;10;6.4;;;;;;;6.86;100;932.4543;;;;
2023/03/31 02:46:19;;;;;;;8.6;6.4;;;;;;;6.86;100;932.3743;;;;
2023/03/31 02:48:44;;;;;;;7.8;6.1;;;;;;;6.89;100;932.2932;;;;
2023/03/31 02:51:12;;;;;;;8.5;6.3;;;;;;;6.89;100;932.2314;;;;
2023/03/31 02:53:37;;;;;;;8.4;6.3;;;;;;;6.92;100;932.2042;;;;
2023/03/31 02:56:03;;;;;;;7.8;6.5;;;;;;;7;100;932.1182;;;;
2023/03/31 02:59:05;;;;;;;9;6.6;;;;;;;7.09;100;932.11;;;;
2023/03/31 03:02:15;;;;;;;8.2;6.4;;;;;;;7.1;100;932.0887;;;;
2023/03/31 03:04:42;;;;;;;7.6;6.3;;;;;;;6.95;100;932.0865;;;;
2023/03/31 03:07:08;;;;;;;9.4;6.4;;;;;;;6.91;100;931.9658;;;;
2023/03/31 03:09:34;;;;;;;8.2;5.7;;;;;;;6.88;100;931.9662;;;;
2023/03/31 03:11:59;;;;;;;8.3;6.6;;;;;;;6.92;100;931.9676;;;;
2023/03/31 03:14:27;;;;;;;7.8;6.9;;;;;;;6.92;100;931.9272;;;;
2023/03/31 03:16:56;;;;;;;7.1;6.2;;;;;;;6.96;100;931.8723;;;;
2023/03/31 03:19:21;;;;;;;9.9;6.7;;;;;;;7.12;100;931.7684;;;;
2023/03/31 03:21:50;;;;;;;8.5;6.6;;;;;;;7.16;100;931.6953;;;;
2023/03/31 03:24:15;;;;;;;9.4;6.8;;;;;;;7.22;100;931.7049;;;;
2023/03/31 03:26:40;;;;;;;8.9;6.2;;;;;;;7.39;98.59766;931.5578;;;;
2023/03/31 03:29:08;;;;;;;8.4;6;;;;;;;7.4;99.29297;931.4709;;;;
2023/03/31 03:31:34;;;;;;;7.2;5.8;;;;;;;7.54;99.12012;931.4187;;;;
2023/03/31 03:33:59;;;;;;;7.2;5.1;;;;;;;7.56;98.85449;931.4078;;;;
2023/03/31 03:36:25;;;;;;;8.1;5.7;;;;;;;7.58;98.8584;931.3232;;;;
2023/03/31 03:38:55;;;;;;;7.4;5.9;;;;;;;7.68;98.58691;931.394;;;;
2023/03/31 03:41:20;;;;;;;9.4;5.8;;;;;;;7.76;97.88867;931.4114;;;;
2023/03/31 03:43:50;;;;;;;7.2;5.8;;;;;;;7.68;97.89453;931.41;;;;
2023/03/31 03:46:21;;;;;;;6.7;6;;;;;;;7.48;98.90137;931.3317;;;;
2023/03/31 03:48:50;;;;;;;6.5;5.7;;;;;;;7.34;99.97168;931.3515;;;;
2023/03/31 03:51:15;;;;;;;8.8;5.9;;;;;;;7.27;100;931.476;;;;
2023/03/31 03:53:46;;;;;;;7.6;6.6;;;;;;;7.26;100;931.3823;;;;
2023/03/31 03:56:17;;;;;;;9.4;6.8;;;;;;;7.27;100;931.4473;;;;
2023/03/31 04:02:43;;;;;;;7.6;6.6;;;;;;;7.27;100;931.2581;;;;
2023/03/31 04:05:19;;;;;;;9;6.4;;;;;;;7.26;100;931.2224;;;;
2023/03/31 04:07:46;;;;;;;7.3;6.5;;;;;;;7.33;100;931.2152;;;;
2023/03/31 04:10:11;;;;;;;10.4;7.3;;;;;;;7.36;100;931.0952;;;;
2023/03/31 04:12:40;;;;;;;8.2;6.4;;;;;;;7.23;100;931.158;;;;
2023/03/31 04:15:05;;;;;;;8;6.7;;;;;;;7.18;100;931.0519;;;;
2023/03/31 04:17:33;;;;;;;7.8;6.6;;;;;;;7.25;100;931.0489;;;;
2023/03/31 04:20:00;;;;;;;10.3;6.6;;;;;;;7.26;100;930.9928;;;;
2023/03/31 04:22:28;;;;;;;9;6.9;;;;;;;7.19;100;931.0441;;;;
2023/03/31 04:24:51;;;;;;;8.1;6.1;;;;;;;7.27;100;931.0421;;;;
2023/03/31 04:27:16;;;;;;;6.9;6.2;;;;;;;7.33;100;930.9681;;;;
2023/03/31 04:29:41;;;;;;;7.9;6;;;;;;;7.39;100;930.88;;;;
2023/03/31 04:32:06;;;;;;;8.4;6.1;;;;;;;7.31;100;930.8103;;;;
2023/03/31 04:34:36;;;;;;;9.2;6.7;;;;;;;7.19;100;930.8018;;;;
2023/03/31 04:37:03;;;;;;;14.1;9.9;;;;;;;7.1;100;930.6259;;;;
2023/03/31 04:39:34;;;;;;;13.5;8.7;;;;;;;7.13;100;930.5051;;;;
2023/03/31 04:42:03;;;;;;;10.6;7.4;;;;;;;7.16;100;930.3986;;;;
2023/03/31 04:44:28;;;;;;;9.7;7.1;;;;;;;7.18;100;930.2087;;;;
2023/03/31 04:47:01;;;;;;;8.3;6.6;;;;;;;7.22;100;930.1119;;;;
2023/03/31 04:49:32;;;;;;;7.1;6.1;;;;;;;7.22;100;930.192;;;;
2023/03/31 04:51:55;;;;;;;7.6;6.3;;;;;;;7.22;100;930.1769;;;;
2023/03/31 04:54:24;;;;;;;7.8;6;;;;;;;7.28;99.85352;930.145;;;;
2023/03/31 04:56:54;;;;;;;7.9;6.4;;;;;;;7.28;98.73145;930.0341;;;;
2023/03/31 04:59:19;;;;;;;9.2;6;;;;;;;7.27;98.41406;929.8322;;;;
2023/03/31 05:01:47;;;;;;;8.4;6.1;;;;;;;7.29;98.44043;929.8489;;;;
2023/03/31 05:04:12;;;;;;;8.1;6.1;;;;;;;7.32;97.68945;929.8437;;;;
2023/03/31 05:06:39;;;;;;;8.3;6.1;;;;;;;7.36;96.47168;929.7029;;;;
2023/03/31 05:09:05;;;;;;;8.3;6.2;;;;;;;7.36;96.92578;929.6174;;;;
2023/03/31 05:11:33;;;;;;;9.5;6.2;;;;;;;7.42;96.72461;929.5287;;;;
2023/03/31 05:13:58;;;;;;;8.2;6.5;;;;;;;7.36;97.58301;929.4448;;;;
2023/03/31 05:16:24;;;;;;;8.1;6.4;;;;;;;7.16;98.95605;929.3505;;;;
2023/03/31 05:18:49;;;;;;;8.8;6.2;;;;;;;7.06;99.51074;929.4194;;;;
2023/03/31 05:21:17;;;;;;;7.1;6.1;;;;;;;7;100;929.394;;;;
2023/03/31 05:23:42;;;;;;;8;6.1;;;;;;;6.96;100;929.32;;;;
2023/03/31 05:26:08;;;;;;;7.5;6.3;;;;;;;7;100;929.2823;;;;
2023/03/31 05:28:33;;;;;;;11.6;7.3;;;;;;;7.05;100;929.2285;;;;
2023/03/31 05:31:01;;;;;;;10.7;8.5;;;;;;;7.05;100;929.3583;;;;
2023/03/31 05:33:26;;;;;;;9.2;7.2;;;;;;;7.03;100;929.195;;;;
2023/03/31 05:35:52;;;;;;;8.2;6.8;;;;;;;7.09;100;929.1085;;;;
2023/03/31 05:38:17;;;;;;;7.9;6.8;;;;;;;7.21;100;929.1983;;;;
2023/03/31 05:40:45;;;;;;;8.8;6.9;;;;;;;7.29;100;929.1362;;;;
2023/03/31 05:43:10;;;;;;;10.2;6.7;;;;;;;7.41;100;929.1025;;;;
2023/03/31 05:45:35;;;;;;;9.4;7.3;;;;;;;7.39;99.88965;928.9794;;;;
2023/03/31 05:48:01;;;;;;;9.1;7.2;;;;;;;7.48;100;928.6777;;;;
2023/03/31 05:50:28;;;;;;;9.9;8.8;;;;;;;7.54;99.51758;928.7983;;;;
2023/03/31 05:52:53;;;;;;;10.9;7.5;;;;;;;7.51;99.83984;928.6817;;;;
2023/03/31 05:55:20;;;;;;;7.3;6.5;;;;;;;7.68;99.53906;928.6884;;;;
2023/03/31 05:57:45;;;;;;;8.7;6.4;;;;;;;7.66;99.33105;928.6978;;;;
2023/03/31 06:00:14;;;;;;;8.7;5.9;;;;;;;7.65;98.44434;928.6012;;;;
2023/03/31 06:02:40;;;;;;;9.8;6;;;;;;;7.64;98.35156;928.4467;;;;
2023/03/31 06:05:12;;;;;;;7.2;5.7;;;;;;;7.73;97.43066;928.3591;;;;
2023/03/31 06:07:42;;;;;;;5.3;4.6;;;;;;;7.67;97.39355;928.2637;;;;
2023/03/31 06:10:13;;;;;;;8.1;6.7;;;;;;;7.76;98.41211;928.2109;;;;
2023/03/31 06:12:42;;;;;;;7.1;6.3;;;;;;;7.72;98.51758;928.1292;;;;
2023/03/31 06:15:07;;;;;;;7.1;5.7;;;;;;;7.78;96.10254;927.9686;;;;
2023/03/31 06:17:32;;;;;;;6.3;4.9;;;;;;;7.89;94.18555;927.9636;;;;
2023/03/31 06:19:59;;;;;;;9.2;5.8;;;;;;;7.88;97.15723;928.0634;;;;
2023/03/31 06:22:24;;;;;;;8.7;6.5;;;;;;;7.86;97.56152;927.9675;;;;
2023/03/31 06:24:54;;;;;;;9.5;7;;;;;;;7.84;98.2832;927.9389;;;;
2023/03/31 06:27:19;;;;;;;7.6;6.1;;;;;;;7.92;98.6084;927.8155;;;;
2023/03/31 06:29:44;;;;;;;8.5;6.5;;;;;;;8;98.68359;927.933;;;;
2023/03/31 06:32:10;;;;;;;9.6;6.2;;;;;;;7.93;99.05371;928.0342;;;;
2023/03/31 06:34:38;;;;;;;7.4;6;;;;;;;7.99;99.29297;928.1652;;;;
2023/03/31 06:37:03;;;;;;;6.9;5.4;;;;;;;7.86;98.59375;928.1744;;;;
2023/03/31 06:39:32;;;;;;;7.6;5.5;;;;;;;7.81;99.2627;928.2222;;;;
2023/03/31 06:41:57;;;;;;;10.3;7.8;;;;;;;7.63;99.23242;928.1266;;;;
2023/03/31 06:44:24;;;;;;;9.7;6.5;;;;;;;7.56;99.74805;928.1631;;;;
2023/03/31 06:47:34;;;;;;;15.3;11;;;;;;;7.63;100;928.041;;;;
2023/03/31 06:50:02;;;;;;;9.7;7.2;;;;;;;7.86;99.67188;927.8906;;;;
2023/03/31 06:52:27;;;;;;;7.8;6.2;;;;;;;7.94;99.00977;927.8385;;;;
2023/03/31 06:54:54;;;;;;;9.4;6.3;;;;;;;8.19;97.93066;927.8923;;;;
2023/03/31 06:57:20;;;;;;;10.9;7;;;;;;;8.34;98.14746;927.7377;;;;
2023/03/31 06:59:51;;;;;;;10;6.8;;;;;;;8.39;98.43262;927.5505;;;;
2023/03/31 07:02:22;;;;;;;8.4;6;;;;;;;8.77;97.56348;927.6286;;;;
2023/03/31 07:04:52;;;;;;;6.5;4.5;;;;;;;9.06;94.39746;927.5247;;;;
2023/03/31 07:07:17;;;;;;;6.8;4.9;;;;;;;9.41;91.99219;927.5305;;;;
2023/03/31 07:09:46;;;;;;;5.1;4.3;;;;;;;9.82;90.59668;927.4752;;;;
2023/03/31 07:12:11;;;;;;;4.4;3.4;;;;;;;10.16;83.18359;927.2547;;;;
2023/03/31 07:14:41;;;;;;;4.3;3.2;;;;;;;10.26;79.01563;927.2498;;;;
2023/03/31 07:17:06;;;;;;;6.8;3.7;;;;;;;10.27;84.71289;927.315;;;;
2023/03/31 07:19:40;;;;;;;4.6;3.2;;;;;;;10.49;83.87598;927.2658;;;;
2023/03/31 07:22:04;;;;;;;4.8;3.4;;;;;;;10.86;83.70996;927.3555;;;;
2023/03/31 07:24:33;;;;;;;4.4;3.2;;;;;;;11.24;83.33691;927.2605;;;;
2023/03/31 07:27:02;;;;;;;5.8;3.6;;;;;;;11.35;82.21191;927.2576;;;;
2023/03/31 07:29:27;;;;;;;4.1;3.5;;;;;;;11.47;78.29883;927.2303;;;;
2023/03/31 07:31:54;;;;;;;5;3.3;;;;;;;11.62;78.44238;927.11;;;;
2023/03/31 07:34:19;;;;;;;3.6;3;;;;;;;11.46;76.99219;927.0886;;;;
2023/03/31 07:36:46;;;;;;;4.3;3;;;;;;;11.02;77.25781;927.1376;;;;
2023/03/31 07:39:11;;;;;;;2.7;2.5;;;;;;;10.86;74.03027;927.1365;;;;
2023/03/31 07:41:39;;;;;;;3.7;2.5;;;;;;;10.92;74.46191;927.1399;;;;
2023/03/31 07:44:04;;;;;;;4.1;2.8;;;;;;;10.91;76.03906;927.1065;;;;
2023/03/31 07:46:30;;;;;;;8.3;3;;;;;;;11.05;77.21875;926.9811;;;;
2023/03/31 07:48:57;;;;;;;5;3.5;;;;;;;11.14;75.86328;927.0279;;;;
2023/03/31 07:51:22;;;;;;;4.2;2.9;;;;;;;11.23;77.41016;927.0264;;;;
2023/03/31 07:53:48;;;;;;;6.9;4.4;;;;;;;11.25;77.04688;927.0173;;;;
2023/03/31 07:56:16;;;;;;;5.9;3.8;;;;;;;11.3;78.73828;927.1921;;;;
2023/03/31 07:58:41;;;;;;;5.5;3.8;;;;;;;11.37;77.9502;927.1276;;;;
2023/03/31 08:01:08;;;;;;;4.5;3.5;;;;;;;11.46;79.9668;927.0591;;;;
2023/03/31 08:03:33;;;;;;;5.5;3.2;;;;;;;11.76;79.93262;927.0586;;;;
2023/03/31 08:05:58;;;;;;;3.8;3;;;;;;;12.05;77.43066;927.1967;;;;
2023/03/31 08:08:26;;;;;;;3.6;2.7;;;;;;;12.07;81.59277;927.1167;;;;
2023/03/31 08:10:51;;;;;;;3.8;3.1;;;;;;;11.89;81.52441;927.1892;;;;
2023/03/31 08:13:18;;;;;;;4.2;2.6;;;;;;;11.94;80.12402;927.4047;;;;
2023/03/31 08:15:48;;;;;;;4.8;3.2;;;;;;;11.88;79.14063;927.4964;;;;
2023/03/31 08:18:13;;;;;;;3.4;2.7;;;;;;;11.68;77.66211;927.3842;;;;
2023/03/31 08:20:40;;;;;;;3.2;2.7;;;;;;;11.91;77.25586;927.3388;;;;
2023/03/31 08:23:07;;;;;;;3.6;2.3;;;;;;;12.74;76.30176;927.2253;;;;
2023/03/31 08:25:30;;;;;;;5.7;2.5;;;;;;;13.56;74.36719;927.1933;;;;
2023/03/31 08:27:57;;;;;;;3.8;2.3;;;;;;;13.08;69.81641;927.0297;;;;
2023/03/31 08:30:22;;;;;;;3.3;2.6;;;;;;;12.84;71.17676;927.0034;;;;
2023/03/31 08:32:52;;;;;;;3.5;2.5;;;;;;;13.24;72.02539;926.9249;;;;
2023/03/31 08:35:21;;;;;;;3.9;2.8;;;;;;;13.97;71.84668;926.8013;;;;
2023/03/31 08:37:46;;;;;;;3.3;2.4;;;;;;;15.51;66.68359;926.7902;;;;
2023/03/31 08:40:13;;;;;;;2.9;2.6;;;;;;;17.22;60.60156;926.739;;;;
2023/03/31 08:42:46;;;;;;;3;2.4;;;;;;;18.95;53.10059;926.8895;;;;
2023/03/31 08:45:15;;;;;;;4.1;2.6;;;;;;;19.44;51.62207;926.9368;;;;
2023/03/31 08:47:40;;;;;;;5;2.4;;;;;;;18.87;51.89063;927.0382;;;;
2023/03/31 08:50:05;;;;;;;2.5;2.1;;;;;;;19.11;50.79199;927.1493;;;;
2023/03/31 08:52:30;;;;;;;3.2;1.9;;;;;;;18.36;53.22754;927.2599;;;;
2023/03/31 08:54:55;;;;;;;3;2.4;;;;;;;17.23;56.2793;927.4453;;;;
2023/03/31 08:57:20;;;;;;;4.4;2.3;;;;;;;15.96;61.08691;927.4302;;;;
2023/03/31 08:59:49;;;;;;;3;2.4;;;;;;;14.93;62.27051;927.4301;;;;
2023/03/31 09:02:14;;;;;;;2.4;2.2;;;;;;;14.41;64.14258;927.3572;;;;
2023/03/31 09:04:40;;;;;;;5.3;3.4;;;;;;;13.62;67.88965;927.402;;;;
2023/03/31 09:07:08;;;;;;;4.8;2.9;;;;;;;13.3;69.3584;927.5242;;;;
2023/03/31 09:09:39;;;;;;;4.5;2.4;;;;;;;12.93;71.49023;927.6058;;;;
2023/03/31 09:12:06;;;;;;;2.8;2.3;;;;;;;12.91;73.84082;927.718;;;;
2023/03/31 09:14:31;;;;;;;3.4;2.7;;;;;;;12.06;79.03613;927.8039;;;;
2023/03/31 09:16:57;;;;;;;3.7;2.2;;;;;;;11.81;81.0625;927.8894;;;;
2023/03/31 09:19:27;;;;;;;3.5;2.5;;;;;;;11.37;87.38672;928.0832;;;;
2023/03/31 09:21:55;;;;;;;3.9;2.6;;;;;;;11.28;84.62305;928.2689;;;;
2023/03/31 09:24:20;;;;;;;3.9;2.8;;;;;;;11.34;84.47559;928.2947;;;;
2023/03/31 09:26:45;;;;;;;3.2;2.6;;;;;;;11.48;84.26367;928.3079;;;;
2023/03/31 09:29:10;;;;;;;5.1;3.5;;;;;;;11.29;84.58105;928.123;;;;
2023/03/31 09:31:36;;;;;;;4.7;3.4;;;;;;;11.22;86.48828;928.0233;;;;
2023/03/31 09:34:00;;;;;;;4.5;3.2;;;;;;;11.23;84.08984;928.0319;;;;
2023/03/31 09:36:26;;;;;;;2.2;2;;;;;;;11.02;85.81934;927.7731;;;;
2023/03/31 09:39:13;;;;;;;4;2.1;;;;;;;10.97;86.45117;927.8234;;;;
2023/03/31 09:41:38;;;;;;;4.1;2.7;;;;;;;11.07;88.88086;927.8898;;;;
2023/03/31 09:44:05;;;;;;;6;3.1;;;;;;;11.23;87.68848;927.9914;;;;
2023/03/31 09:46:32;;;;;;;3.5;2.5;;;;;;;11.26;88.26758;928.0349;;;;
2023/03/31 09:48:58;;;;;;;3.7;2.5;;;;;;;11.16;87.36914;927.9933;;;;
2023/03/31 09:51:25;;;;;;;3.7;2.3;;;;;;;11.01;86.9248;927.9252;;;;
2023/03/31 09:53:50;;;;;;;4.7;2.4;;;;;;;10.78;87.17871;927.9634;;;;
2023/03/31 09:56:15;;;;;;;8.7;5.9;;;;;;;10.55;88.19336;928.1217;;;;
2023/03/31 09:58:41;;;;;;;4;2.9;;;;;;;10.41;90.66309;928.1688;;;;
2023/03/31 10:01:08;;;;;;;4.1;3.1;;;;;;;10.29;93.07129;928.057;;;;
2023/03/31 10:03:35;;;;;;;3.7;2.3;;;;;;;10.31;94.37402;927.9551;;;;
2023/03/31 10:05:57;;;;;;;2.3;2.1;;;;;;;10.16;95.46973;927.5602;;;;
2023/03/31 10:08:26;;;;;;;4.2;2.4;;;;;;;10.03;96.38867;927.5037;;;;
2023/03/31 10:10:50;;;;;;;3.4;2.2;;;;;;;10.47;96.43164;927.6145;;;;
2023/03/31 10:13:16;;;;;;;4.5;2.8;;;;;;;10.86;94.93945;927.6088;;;;
2023/03/31 10:15:41;;;;;;;3.6;2.7;;;;;;;11.09;93.72266;927.5925;;;;
2023/03/31 10:18:11;;;;;;;4.1;2.1;;;;;;;11.06;90.33105;927.6334;;;;
2023/03/31 10:20:39;;;;;;;2.7;2.2;;;;;;;11.06;90.48145;927.5609;;;;
2023/03/31 10:23:04;;;;;;;2.6;1.9;;;;;;;10.96;88.89258;927.541;;;;
2023/03/31 10:25:29;;;;;;;2.5;2.1;;;;;;;10.94;89.4375;927.5609;;;;
2023/03/31 10:27:57;;;;;;;3.2;2.1;;;;;;;11.09;89.11523;927.5064;;;;
2023/03/31 10:30:22;;;;;;;4.2;2.4;;;;;;;11.35;89.95801;927.5231;;;;
2023/03/31 10:32:53;;;;;;;3.4;2.8;;;;;;;11.56;91.00684;927.4086;;;;
2023/03/31 10:35:18;;;;;;;2.2;2;;;;;;;11.47;89.19336;927.546;;;;
2023/03/31 10:37:43;;;;;;;3.4;2.4;;;;;;;11.63;88.27441;927.3699;;;;
2023/03/31 10:40:09;;;;;;;3.3;2.3;;;;;;;11.81;88.86328;927.3537;;;;
2023/03/31 10:42:35;;;;;;;3.2;2.5;;;;;;;11.88;89.74609;927.2123;;;;
2023/03/31 10:45:03;;;;;;;4.3;2.6;;;;;;;11.91;89.4541;927.3892;;;;
2023/03/31 10:47:35;;;;;;;3;2.7;;;;;;;11.94;89.12988;927.182;;;;
2023/03/31 10:50:00;;;;;;;4.1;3.1;;;;;;;11.73;91.13672;927.335;;;;
2023/03/31 10:52:26;;;;;;;2.9;2.6;;;;;;;11.75;90.69336;927.3052;;;;
2023/03/31 10:54:51;;;;;;;2.9;2.6;;;;;;;11.85;86.95801;927.204;;;;
2023/03/31 10:57:16;;;;;;;4.2;2.9;;;;;;;11.74;88.11523;927.2742;;;;
2023/03/31 10:59:41;;;;;;;4.4;3.5;;;;;;;11.72;91.03125;927.4124;;;;
2023/03/31 11:02:06;;;;;;;4.2;3;;;;;;;11.77;90.95898;927.38;;;;
2023/03/31 11:04:35;;;;;;;2.8;2.4;;;;;;;11.7;89.91504;927.2883;;;;
2023/03/31 11:07:00;;;;;;;3.3;2.4;;;;;;;11.52;90.64453;927.3182;;;;
2023/03/31 11:09:26;;;;;;;4.1;2.7;;;;;;;11.48;89.93652;927.2166;;;;
2023/03/31 11:11:52;;;;;;;7;4.9;;;;;;;11.34;93.15723;927.202;;;;
2023/03/31 11:14:17;;;;;;;4.6;3.3;;;;;;;11.42;92.75195;927.1281;;;;
2023/03/31 11:16:44;;;;;;;3.6;2.9;;;;;;;11.55;92.90625;927.1847;;;;
2023/03/31 11:19:09;;;;;;;3.1;2.7;;;;;;;11.57;91.10254;927.155;;;;
2023/03/31 11:21:34;;;;;;;4.4;2.6;;;;;;;11.61;89.2666;927.0612;;;;
2023/03/31 11:24:01;;;;;;;2.8;2.4;;;;;;;11.61;90.1123;927.1656;;;;
2023/03/31 11:26:26;;;;;;;6.6;4.6;;;;;;;11.56;92.39355;927.0856;;;;
2023/03/31 11:28:52;;;;;;;3.9;3.5;;;;;;;11.58;92.07715;927.1062;;;;
2023/03/31 11:31:18;;;;;;;5.7;3.7;;;;;;;11.68;91.91504;927.0247;;;;
2023/03/31 11:33:43;;;;;;;4.5;3.9;;;;;;;11.7;92.83398;927.0388;;;;
2023/03/31 11:36:08;;;;;;;7;4.8;;;;;;;11.83;92.17676;926.9889;;;;
2023/03/31 11:38:34;;;;;;;6.5;4.6;;;;;;;11.93;91.73926;927.0259;;;;
2023/03/31 11:40:58;;;;;;;7.4;5.2;;;;;;;11.84;90.40332;927.13;;;;
2023/03/31 11:43:26;;;;;;;5.1;3.3;;;;;;;11.54;91.64355;927.1067;;;;
2023/03/31 11:45:51;;;;;;;4.9;3.7;;;;;;;11.33;90.87695;927.1608;;;;
2023/03/31 11:48:16;;;;;;;5.4;3.3;;;;;;;11.15;93.42578;926.8557;;;;
2023/03/31 11:50:41;;;;;;;5.2;3.2;;;;;;;11;95.42676;927.147;;;;
2023/03/31 11:53:09;;;;;;;10;5.2;;;;;;;10.92;97.0791;927.3158;;;;
2023/03/31 11:55:36;;;;;;;8.3;5.7;;;;;;;10.77;97.46973;927.3225;;;;
2023/03/31 11:57:59;;;;;;;7.1;4.5;;;;;;;10.57;93.99707;927.2708;;;;
2023/03/31 12:00:27;;;;;;;4.7;3.7;;;;;;;10.28;87.44141;926.9744;;;;
2023/03/31 12:02:59;;;;;;;3.5;3.1;;;;;;;10.13;88.40332;926.8254;;;;
2023/03/31 12:05:24;;;;;;;6.3;4.1;;;;;;;10.17;86.51855;926.5945;;;;
2023/03/31 12:07:49;;;;;;;5.1;4;;;;;;;10.19;85.09766;926.7136;;;;
2023/03/31 12:10:15;;;;;;;15.5;12.3;;;;;;;10.05;86.27637;926.647;;;;
2023/03/31 12:12:42;;;;;;;3.2;2.9;;;;;;;9.86;88.9873;926.567;;;;
2023/03/31 12:15:15;;;;;;;3.2;2.8;;;;;;;9.68;89.24707;926.3463;;;;
2023/03/31 12:17:42;;;;;;;4.9;4.2;;;;;;;9.83;86.32617;926.1578;;;;
2023/03/31 12:20:38;;;;;;;3.3;2.8;;;;;;;9.94;83.90625;926.0108;;;;
2023/03/31 12:23:03;;;;;;;4.3;3.1;;;;;;;10.13;84.30762;925.8892;;;;
2023/03/31 12:25:32;;;;;;;4.9;3.3;;;;;;;10.25;85.04004;925.7424;;;;
2023/03/31 12:28:01;;;;;;;7.3;5.1;;;;;;;10.36;84.60449;925.7819;;;;
2023/03/31 12:30:33;;;;;;;9.3;5.6;;;;;;;10.43;88.73828;925.6725;;;;
2023/03/31 12:32:56;;;;;;;7.9;5.1;;;;;;;10.42;89.45703;925.7035;;;;
2023/03/31 12:35:28;;;;;;;9;6;;;;;;;10.41;90.04688;925.627;;;;
2023/03/31 12:37:56;;;;;;;5.6;3.9;;;;;;;10.29;87.50098;925.5416;;;;
2023/03/31 12:40:24;;;;;;;4.6;3.8;;;;;;;10.44;87.5752;925.6476;;;;
2023/03/31 12:42:53;;;;;;;5.4;3.8;;;;;;;10.55;88.21582;925.7237;;;;
2023/03/31 12:45:22;;;;;;;8.4;5.4;;;;;;;10.48;86.5918;925.7522;;;;
2023/03/31 12:47:48;;;;;;;12.6;8.3;;;;;;;10.48;88.53223;925.7737;;;;
2023/03/31 12:50:14;;;;;;;5.8;3.4;;;;;;;10.39;86.49316;925.7211;;;;
2023/03/31 12:53:18;;;;;;;3.8;2.7;;;;;;;10.48;86.68262;925.7411;;;;
2023/03/31 12:55:45;;;;;;;8.3;5.5;;;;;;;10.46;88.83691;925.7667;;;;
2023/03/31 12:58:10;;;;;;;7.7;5;;;;;;;10.47;90.87012;925.7706;;;;
2023/03/31 13:00:35;;;;;;;5.4;4.2;;;;;;;10.6;90.51074;925.7183;;;;
2023/03/31 13:03:01;;;;;;;7.3;4.6;;;;;;;10.73;90.02344;925.6231;;;;
2023/03/31 13:05:26;;;;;;;9;5.4;;;;;;;10.86;89.86621;925.5718;;;;
2023/03/31 13:07:55;;;;;;;6.2;4.2;;;;;;;10.62;85.97852;925.5703;;;;
2023/03/31 13:10:24;;;;;;;3.8;2.6;;;;;;;10.53;85.62988;925.6069;;;;
2023/03/31 13:12:49;;;;;;;3.9;3.5;;;;;;;10.72;87.31445;925.6934;;;;
2023/03/31 13:15:18;;;;;;;7.5;4.4;;;;;;;10.6;91.11426;925.6053;;;;
2023/03/31 13:17:44;;;;;;;10.8;6.7;;;;;;;10.57;91.49707;925.6199;;;;
2023/03/31 13:20:14;;;;;;;6.7;4.6;;;;;;;10.44;91.23047;925.6523;;;;
2023/03/31 13:22:39;;;;;;;5.2;3.9;;;;;;;10.62;89.65625;925.4136;;;;
2023/03/31 13:25:04;;;;;;;4.7;3.5;;;;;;;10.65;86.46777;925.4028;;;;
2023/03/31 13:27:34;;;;;;;4.8;3.4;;;;;;;10.63;87.60449;925.4333;;;;
2023/03/31 13:30:05;;;;;;;5.6;4.2;;;;;;;10.82;87.97168;925.3549;;;;
2023/03/31 13:32:33;;;;;;;5.1;3.7;;;;;;;10.71;88.20117;925.4595;;;;
2023/03/31 13:34:58;;;;;;;5;3.7;;;;;;;10.72;87.99902;925.3741;;;;
2023/03/31 13:37:23;;;;;;;2.8;2.5;;;;;;;;;;;;;
2023/03/31 13:39:51;;;;;;;3;2.7;;;;;;;;;;;;;
2023/03/31 13:42:16;;;;;;;3.1;2.8;;;;;;;;;;;;;
2023/03/31 13:44:41;;;;;;;8.9;4.2;;;;;;;;;;;;;
2023/03/31 13:47:06;;;;;;;13.5;7.3;;;;;;;;;;;;;
2023/03/31 13:49:31;;;;;;;10.7;5.6;;;;;;;;;;;;;
2023/03/31 13:51:57;;;;;;;4.4;3;;;;;;;;;;;;;
2023/03/31 13:54:22;;;;;;;3.8;2.8;;;;;;;;;;;;;
2023/03/31 13:56:47;;;;;;;3.6;2.8;;;;;;;;;;;;;
2023/03/31 13:59:13;;;;;;;4.5;3.2;;;;;;;;;;;;;
2023/03/31 14:01:39;;;;;;;4.1;3.3;;;;;;;;;;;;;
2023/03/31 14:04:04;;;;;;;5;3.5;;;;;;;;;;;;;
2023/03/31 14:06:28;;;;;;;3.2;2.9;;;;;;;;;;;;;
2023/03/31 14:08:54;;;;;;;3.3;2.7;;;;;;;;;;;;;
2023/03/31 14:11:19;;;;;;;3.2;2.1;;;;;;;;;;;;;
2023/03/31 14:13:44;;;;;;;2.1;1.6;;;;;;;;;;;;;
2023/03/31 14:16:09;;;;;;;2.3;1.6;;;;;;;;;;;;;
2023/03/31 14:18:36;;;;;;;2.1;1.6;;;;;;;;;;;;;
2023/03/31 14:21:02;;;;;;;3.6;2.1;;;;;;;;;;;;;
2023/03/31 14:23:28;;;;;;;2.5;1.6;;;;;;;;;;;;;
2023/03/31 14:25:53;;;;;;;2.5;2;;;;;;;;;;;;;
2023/03/31 14:28:19;;;;;;;1.9;1.8;;;;;;;;;;;;;
2023/03/31 14:30:45;;;;;;;3.1;1.8;;;;;;;;;;;;;
2023/03/31 14:33:08;;;;;;;3.2;1.9;;;;;;;;;;;;;
2023/03/31 14:35:37;;;;;;;3.5;2.8;;;;;;;;;;;;;
2023/03/31 14:37:59;;;;;;;3.2;2.3;;;;;;;;;;;;;
2023/03/31 14:40:23;;;;;;;3.5;2.5;;;;;;;;;;;;;
2023/03/31 14:42:50;;;;;;;4;2.6;;;;;;;;;;;;;
2023/03/31 14:45:14;;;;;;;4.1;2.8;;;;;;;;;;;;;
2023/03/31 14:47:42;;;;;;;3.9;2.8;;;;;;;;;;;;;
2023/03/31 14:50:09;;;;;;;3.7;2.3;;;;;;;;;;;;;
2023/03/31 14:52:34;;;;;;;5.2;2.7;;;;;;;;;;;;;
2023/03/31 14:55:00;;;;;;;5.1;3.1;;;;;;;;;;;;;
2023/03/31 14:57:25;;;;;;;3.3;2.7;;;;;;;;;;;;;
2023/03/31 14:59:50;;;;;;;6;4;;;;;;;;;;;;;
2023/03/31 15:02:15;;;;;;;4.2;3.2;;;;;;;;;;;;;
2023/03/31 15:04:43;;;;;;;5.1;3.6;;;;;;;;;;;;;
2023/03/31 15:07:06;;;;;;;2.4;1.9;;;;;;;;;;;;;
2023/03/31 15:09:34;;;;;;;4.1;2.9;;;;;;;;;;;;;
2023/03/31 15:11:59;;;;;;;4.4;3;;;;;;;;;;;;;
2023/03/31 15:14:25;;;;;;;3.8;2.9;;;;;;;;;;;;;
2023/03/31 15:16:50;;;;;;;7.9;4.3;;;;;;;;;;;;;
2023/03/31 15:19:16;;;;;;;7.6;5;;;;;;;;;;;;;
2023/03/31 15:21:41;;;;;;;3.1;2.3;;;;;;;;;;;;;
2023/03/31 15:24:07;;;;;;;2.8;2.1;;;;;;;;;;;;;
2023/03/31 15:26:33;;;;;;;2.1;1.8;;;;;;;;;;;;;
2023/03/31 15:28:58;;;;;;;2.8;2;;;;;;;;;;;;;
2023/03/31 15:31:25;;;;;;;3.8;2.4;;;;;;;;;;;;;